createdAt,value
2022-10-30T00:02:26.888Z,18.33
2022-10-30T00:04:54.073Z,19.00
2022-10-30T00:07:21.177Z,21.57
2022-10-30T00:09:48.235Z,22.13
2022-10-30T00:12:15.359Z,24.40
2022-10-30T00:14:42.440Z,22.47
2022-10-30T00:17:09.530Z,27.27
2022-10-30T00:19:36.621Z,20.03
2022-10-30T00:24:30.143Z,15.80
2022-10-30T00:26:57.224Z,16.67
2022-10-30T00:29:26.271Z,18.70
2022-10-30T00:31:54.061Z,16.93
2022-10-30T00:34:21.146Z,19.47
2022-10-30T00:36:48.207Z,16.57
2022-10-30T00:39:15.296Z,18.27
2022-10-30T00:41:42.849Z,18.77
2022-10-30T00:44:28.577Z,18.83
2022-10-30T00:46:55.735Z,18.93
2022-10-30T00:49:23.142Z,19.97
2022-10-30T00:51:52.939Z,18.97
2022-10-30T00:54:20.949Z,19.20
2022-10-30T00:56:48.975Z,20.43
2022-10-30T00:59:24.272Z,19.23
2022-10-30T01:01:51.456Z,20.87
2022-10-30T01:04:18.720Z,19.50
2022-10-30T01:06:48.299Z,20.27
2022-10-30T01:09:16.143Z,19.33
2022-10-30T01:11:43.341Z,20.03
2022-10-30T01:14:11.668Z,20.00
2022-10-30T01:16:44.659Z,19.07
2022-10-30T01:19:11.723Z,19.00
2022-10-30T01:21:57.202Z,19.40
2022-10-30T01:24:47.523Z,19.47
2022-10-30T01:27:20.704Z,16.10
2022-10-30T01:30:06.137Z,17.53
2022-10-30T01:32:38.986Z,17.80
2022-10-30T01:35:09.008Z,19.70
2022-10-30T01:37:41.758Z,19.90
2022-10-30T01:40:13.572Z,20.43
2022-10-30T01:42:49.624Z,19.97
2022-10-30T01:45:25.597Z,20.47
2022-10-30T01:48:01.702Z,18.73
2022-10-30T01:50:36.941Z,17.27
2022-10-30T01:53:16.237Z,16.77
2022-10-30T01:55:49.310Z,15.53
2022-10-30T01:58:48.782Z,16.00
2022-10-30T02:01:16.364Z,14.30
2022-10-30T02:03:44.227Z,15.07
2022-10-30T02:06:11.309Z,14.33
2022-10-30T02:08:38.412Z,14.93
2022-10-30T02:11:05.673Z,14.93
2022-10-30T02:13:32.864Z,14.23
2022-10-30T02:16:00.328Z,14.73
2022-10-30T02:18:27.470Z,14.57
2022-10-30T02:20:54.587Z,15.27
2022-10-30T02:23:22.411Z,13.87
2022-10-30T02:25:49.548Z,14.43
2022-10-30T02:28:16.752Z,14.70
2022-10-30T02:30:44.170Z,14.07
2022-10-30T02:33:11.588Z,14.57
2022-10-30T02:35:38.712Z,13.93
2022-10-30T02:38:05.808Z,15.67
2022-10-30T02:40:32.985Z,13.73
2022-10-30T02:43:00.062Z,17.87
2022-10-30T02:45:27.157Z,14.67
2022-10-30T02:47:54.358Z,16.80
2022-10-30T02:50:21.901Z,14.03
2022-10-30T02:52:48.958Z,14.27
2022-10-30T02:55:16.097Z,15.07
2022-10-30T02:57:43.178Z,14.63
2022-10-30T03:00:10.555Z,16.10
2022-10-30T03:02:37.640Z,15.13
2022-10-30T03:05:04.815Z,14.43
2022-10-30T03:07:31.870Z,16.23
2022-10-30T03:09:58.928Z,16.67
2022-10-30T03:12:26.027Z,16.67
2022-10-30T03:14:53.113Z,14.57
2022-10-30T03:17:20.213Z,13.97
2022-10-30T03:19:47.299Z,13.67
2022-10-30T03:22:14.340Z,13.13
2022-10-30T03:24:41.436Z,13.23
2022-10-30T03:27:08.505Z,13.50
2022-10-30T03:29:35.569Z,13.10
2022-10-30T03:32:02.619Z,13.23
2022-10-30T03:34:29.703Z,14.00
2022-10-30T03:36:56.810Z,12.40
2022-10-30T03:39:23.925Z,13.43
2022-10-30T03:41:50.983Z,13.30
2022-10-30T03:44:18.071Z,15.23
2022-10-30T03:46:45.379Z,15.77
2022-10-30T03:49:12.464Z,15.90
2022-10-30T03:51:39.565Z,16.53
2022-10-30T03:54:06.665Z,16.47
2022-10-30T03:56:33.705Z,16.30
2022-10-30T03:59:00.864Z,16.30
2022-10-30T04:01:27.961Z,16.63
2022-10-30T04:03:55.185Z,15.33
2022-10-30T04:06:22.232Z,15.27
2022-10-30T04:08:49.364Z,15.07
2022-10-30T04:11:16.469Z,13.60
2022-10-30T04:13:43.546Z,14.83
2022-10-30T04:16:10.680Z,14.70
2022-10-30T04:18:37.794Z,17.40
2022-10-30T04:21:05.010Z,15.17
2022-10-30T04:23:32.163Z,15.40
2022-10-30T04:26:01.134Z,14.63
2022-10-30T04:28:28.264Z,13.30
2022-10-30T04:30:55.357Z,11.83
2022-10-30T04:33:22.466Z,10.90
2022-10-30T04:35:49.542Z,12.47
2022-10-30T04:38:19.616Z,12.77
2022-10-30T04:40:46.701Z,13.73
2022-10-30T04:43:14.144Z,13.57
2022-10-30T04:45:41.673Z,11.60
2022-10-30T04:48:11.239Z,13.07
2022-10-30T04:50:38.888Z,12.80
2022-10-30T04:53:16.179Z,13.17
2022-10-30T04:55:44.291Z,15.23
2022-10-30T04:58:11.731Z,12.53
2022-10-30T05:00:38.824Z,13.17
2022-10-30T05:03:05.911Z,12.20
2022-10-30T05:05:33.004Z,10.03
2022-10-30T05:08:00.457Z,10.73
2022-10-30T05:10:27.950Z,11.70
2022-10-30T05:12:55.100Z,12.47
2022-10-30T05:15:22.487Z,11.20
2022-10-30T05:17:53.797Z,11.60
2022-10-30T05:20:21.091Z,12.50
2022-10-30T05:22:54.446Z,12.30
2022-10-30T05:25:21.498Z,14.23
2022-10-30T05:27:48.654Z,13.67
2022-10-30T05:30:15.695Z,14.03
2022-10-30T05:32:42.764Z,16.10
2022-10-30T05:35:09.952Z,16.83
2022-10-30T05:37:37.194Z,18.60
2022-10-30T05:40:04.435Z,13.20
2022-10-30T05:42:31.521Z,15.20
2022-10-30T05:45:01.258Z,17.70
2022-10-30T05:47:29.045Z,16.30
2022-10-30T05:49:56.096Z,15.37
2022-10-30T05:52:23.176Z,17.30
2022-10-30T05:54:50.244Z,20.87
2022-10-30T05:57:17.313Z,19.90
2022-10-30T05:59:44.352Z,20.43
2022-10-30T06:02:11.462Z,18.57
2022-10-30T06:04:38.559Z,17.80
2022-10-30T06:07:05.714Z,20.90
2022-10-30T06:09:32.755Z,17.23
2022-10-30T06:11:59.875Z,20.43
2022-10-30T06:14:26.933Z,24.37
2022-10-30T06:16:53.966Z,19.80
2022-10-30T06:19:21.096Z,26.60
2022-10-30T06:21:48.206Z,20.00
2022-10-30T06:24:15.317Z,21.90
2022-10-30T06:26:42.376Z,20.70
2022-10-30T06:29:09.443Z,22.33
2022-10-30T06:31:36.510Z,20.63
2022-10-30T06:34:03.582Z,19.73
2022-10-30T06:36:30.631Z,17.47
2022-10-30T06:38:57.699Z,13.33
2022-10-30T06:41:29.110Z,15.63
2022-10-30T06:43:57.353Z,16.60
2022-10-30T06:46:27.371Z,12.70
2022-10-30T06:48:57.853Z,13.20
2022-10-30T06:51:25.126Z,12.53
2022-10-30T06:53:52.192Z,13.30
2022-10-30T06:56:19.249Z,16.13
2022-10-30T06:58:46.291Z,17.80
2022-10-30T07:01:13.564Z,18.00
2022-10-30T07:03:40.694Z,22.63
2022-10-30T07:06:08.125Z,23.13
2022-10-30T07:08:35.209Z,21.70
2022-10-30T07:11:02.318Z,23.63
2022-10-30T07:13:29.364Z,20.90
2022-10-30T07:15:56.442Z,21.87
2022-10-30T07:18:23.554Z,21.87
2022-10-30T07:20:55.015Z,16.87
2022-10-30T07:23:22.132Z,13.97
2022-10-30T07:25:49.244Z,20.20
2022-10-30T07:28:16.440Z,28.33
2022-10-30T07:30:43.488Z,26.93
2022-10-30T07:33:10.823Z,24.30
2022-10-30T07:35:37.931Z,11.87
2022-10-30T07:38:05.007Z,15.07
2022-10-30T07:40:32.509Z,10.33
2022-10-30T07:43:01.447Z,11.40
2022-10-30T07:45:29.096Z,16.47
2022-10-30T07:47:56.893Z,11.60
2022-10-30T07:50:24.633Z,13.57
2022-10-30T07:52:51.719Z,11.70
2022-10-30T07:55:18.883Z,12.03
2022-10-30T07:57:45.948Z,13.70
2022-10-30T08:00:14.177Z,10.93
2022-10-30T08:02:41.662Z,11.57
2022-10-30T08:05:09.559Z,10.57
2022-10-30T08:07:37.590Z,12.33
2022-10-30T08:10:05.149Z,10.80
2022-10-30T08:12:33.685Z,8.97
2022-10-30T08:15:00.761Z,10.40
2022-10-30T08:17:27.934Z,9.37
2022-10-30T08:19:55.458Z,8.50
2022-10-30T08:22:22.591Z,9.97
2022-10-30T08:24:49.679Z,7.80
2022-10-30T08:27:16.828Z,8.53
2022-10-30T08:29:43.995Z,7.90
2022-10-30T08:32:11.051Z,7.13
2022-10-30T08:34:38.094Z,9.43
2022-10-30T08:37:05.700Z,9.30
2022-10-30T08:39:32.772Z,8.13
2022-10-30T08:42:00.215Z,9.90
2022-10-30T08:44:27.347Z,11.10
2022-10-30T08:46:54.439Z,8.57
2022-10-30T08:49:21.516Z,8.63
2022-10-30T08:51:48.628Z,7.40
2022-10-30T08:54:15.697Z,7.77
2022-10-30T08:56:42.743Z,7.10
2022-10-30T08:59:09.797Z,8.97
2022-10-30T09:01:37.016Z,9.20
2022-10-30T09:04:04.286Z,8.07
2022-10-30T09:06:32.013Z,8.77
2022-10-30T09:08:59.094Z,7.47
2022-10-30T09:11:26.382Z,7.43
2022-10-30T09:13:53.423Z,7.43
2022-10-30T09:16:20.632Z,6.97
2022-10-30T09:18:47.697Z,8.53
2022-10-30T09:21:14.784Z,7.40
2022-10-30T09:23:43.499Z,12.47
2022-10-30T09:26:10.982Z,6.20
2022-10-30T09:28:38.264Z,7.83
2022-10-30T09:31:05.552Z,7.27
2022-10-30T09:33:32.697Z,7.43
2022-10-30T09:35:59.885Z,6.80
2022-10-30T09:38:27.011Z,7.63
2022-10-30T09:41:11.852Z,14.13
2022-10-30T09:43:42.016Z,8.53
2022-10-30T09:46:11.895Z,7.47
2022-10-30T09:48:38.918Z,6.63
2022-10-30T09:51:15.027Z,6.73
2022-10-30T09:53:51.192Z,7.23
2022-10-30T09:56:18.243Z,9.47
2022-10-30T09:58:51.889Z,6.57
2022-10-30T10:01:23.777Z,7.43
2022-10-30T10:03:54.086Z,7.80
2022-10-30T10:06:21.692Z,7.07
2022-10-30T10:08:53.460Z,7.20
2022-10-30T10:11:23.938Z,6.37
2022-10-30T10:14:03.122Z,6.73
2022-10-30T10:16:32.175Z,7.73
2022-10-30T10:19:03.432Z,6.50
2022-10-30T10:21:31.977Z,7.20
2022-10-30T10:24:04.259Z,6.70
2022-10-30T10:26:36.853Z,7.93
2022-10-30T10:29:20.476Z,8.50
2022-10-30T10:31:50.596Z,8.33
2022-10-30T10:34:29.927Z,6.80
2022-10-30T10:37:06.508Z,6.90
2022-10-30T10:39:39.487Z,6.53
2022-10-30T10:42:21.840Z,6.20
2022-10-30T10:44:48.977Z,6.13
2022-10-30T10:47:37.601Z,6.28
2022-10-30T10:50:04.763Z,5.80
2022-10-30T10:52:40.167Z,7.93
2022-10-30T10:55:27.609Z,9.05
2022-10-30T10:57:55.986Z,8.98
2022-10-30T11:00:24.415Z,6.50
2022-10-30T11:02:52.146Z,5.28
2022-10-30T11:05:27.098Z,5.80
2022-10-30T11:07:54.802Z,4.97
2022-10-30T11:10:23.645Z,5.22
2022-10-30T11:12:50.736Z,5.40
2022-10-30T11:15:23.119Z,4.88
2022-10-30T11:17:58.926Z,5.47
2022-10-30T11:20:29.811Z,5.20
2022-10-30T11:22:57.165Z,4.75
2022-10-30T11:25:30.231Z,5.30
2022-10-30T11:28:00.274Z,4.93
2022-10-30T11:30:28.988Z,5.22
2022-10-30T11:32:57.288Z,4.70
2022-10-30T11:35:25.138Z,4.70
2022-10-30T11:37:53.335Z,5.22
2022-10-30T11:40:21.929Z,4.88
2022-10-30T11:42:49.004Z,5.10
2022-10-30T11:45:28.341Z,4.90
2022-10-30T11:48:01.058Z,5.10
2022-10-30T11:50:30.830Z,5.20
2022-10-30T11:53:00.391Z,5.45
2022-10-30T11:55:39.309Z,5.65
2022-10-30T11:58:09.869Z,5.93
2022-10-30T12:00:37.567Z,5.40
2022-10-30T12:03:04.650Z,5.47
2022-10-30T12:05:34.256Z,5.80
2022-10-30T12:08:07.163Z,5.45
2022-10-30T12:10:46.061Z,5.72
2022-10-30T12:13:17.921Z,5.85
2022-10-30T12:15:45.950Z,6.03
2022-10-30T12:18:26.175Z,6.20
2022-10-30T12:20:56.610Z,6.28
2022-10-30T12:23:25.876Z,7.75
2022-10-30T12:25:54.478Z,7.22
2022-10-30T12:28:22.905Z,13.73
2022-10-30T12:30:52.891Z,7.28
2022-10-30T12:33:38.788Z,6.60
2022-10-30T12:36:17.623Z,6.22
2022-10-30T12:38:46.998Z,6.55
2022-10-30T12:41:32.624Z,5.95
2022-10-30T12:44:03.174Z,6.35
2022-10-30T12:46:43.134Z,6.50
2022-10-30T12:49:10.221Z,6.25
2022-10-30T12:51:46.691Z,6.07
2022-10-30T12:54:16.837Z,6.15
2022-10-30T12:56:45.985Z,6.90
2022-10-30T12:59:34.082Z,6.40
2022-10-30T13:02:05.607Z,6.75
2022-10-30T13:04:45.546Z,6.55
2022-10-30T13:07:32.655Z,5.78
2022-10-30T13:10:18.347Z,6.18
2022-10-30T13:12:47.465Z,6.10
2022-10-30T13:15:14.530Z,6.68
2022-10-30T13:17:41.636Z,5.85
2022-10-30T13:20:13.354Z,5.60
2022-10-30T13:22:46.217Z,6.95
2022-10-30T13:25:16.103Z,6.38
2022-10-30T13:27:49.179Z,6.72
2022-10-30T13:30:18.100Z,5.88
2022-10-30T13:32:54.083Z,6.68
2022-10-30T13:35:56.863Z,6.47
2022-10-30T13:38:42.721Z,5.78
2022-10-30T13:41:09.795Z,5.95
2022-10-30T13:43:46.019Z,6.25
2022-10-30T13:46:13.073Z,6.15
2022-10-30T13:48:43.264Z,6.43
2022-10-30T13:51:27.160Z,6.40
2022-10-30T13:54:03.661Z,6.40
2022-10-30T13:56:31.029Z,6.38
2022-10-30T13:59:00.127Z,6.72
2022-10-30T14:01:35.358Z,6.00
2022-10-30T14:04:13.563Z,6.40
2022-10-30T14:06:43.417Z,6.15
2022-10-30T14:09:20.024Z,6.22
2022-10-30T14:11:47.222Z,6.10
2022-10-30T14:14:14.301Z,6.07
2022-10-30T14:16:41.436Z,5.85
2022-10-30T14:19:08.660Z,6.43
2022-10-30T14:21:38.907Z,5.70
2022-10-30T14:24:11.603Z,5.78
2022-10-30T14:26:39.677Z,5.90
2022-10-30T14:29:25.607Z,5.90
2022-10-30T14:31:52.859Z,5.63
2022-10-30T14:34:38.779Z,6.05
2022-10-30T14:37:05.841Z,6.03
2022-10-30T14:39:38.801Z,5.53
2022-10-30T14:42:05.977Z,6.10
2022-10-30T14:44:48.374Z,5.90
2022-10-30T14:47:21.542Z,5.65
2022-10-30T14:49:50.688Z,6.53
2022-10-30T14:52:20.765Z,5.82
2022-10-30T14:54:55.517Z,5.93
2022-10-30T14:57:23.679Z,6.68
2022-10-30T15:00:10.757Z,6.80
2022-10-30T15:02:41.691Z,6.90
2022-10-30T15:05:09.842Z,6.85
2022-10-30T15:07:54.791Z,6.47
2022-10-30T15:10:35.183Z,6.43
2022-10-30T15:13:14.142Z,6.68
2022-10-30T15:15:41.233Z,6.65
2022-10-30T15:18:09.446Z,6.65
2022-10-30T15:20:38.002Z,10.80
2022-10-30T15:23:07.556Z,15.85
2022-10-30T15:25:36.308Z,23.83
2022-10-30T15:28:04.048Z,26.88
2022-10-30T15:30:31.142Z,29.95
2022-10-30T15:32:58.722Z,32.67
2022-10-30T15:35:27.586Z,15.30
2022-10-30T15:38:07.725Z,22.05
2022-10-30T15:40:35.719Z,30.83
2022-10-30T15:43:03.505Z,34.07
2022-10-30T15:45:30.544Z,25.90
2022-10-30T15:48:18.608Z,19.17
2022-10-30T15:50:46.695Z,18.10
2022-10-30T15:53:20.371Z,17.27
2022-10-30T15:55:48.694Z,16.87
2022-10-30T15:58:18.143Z,16.97
2022-10-30T16:00:55.698Z,15.93
2022-10-30T16:03:22.920Z,16.63
2022-10-30T16:05:50.051Z,11.73
2022-10-30T16:08:21.295Z,13.47
2022-10-30T16:10:49.243Z,11.60
2022-10-30T16:13:36.027Z,12.27
2022-10-30T16:16:03.774Z,10.67
2022-10-30T16:18:32.281Z,10.53
2022-10-30T16:21:03.815Z,10.17
2022-10-30T16:23:31.207Z,10.27
2022-10-30T16:25:59.084Z,10.03
2022-10-30T16:28:31.042Z,11.53
2022-10-30T16:30:59.923Z,13.50
2022-10-30T16:33:28.386Z,12.07
2022-10-30T16:35:56.254Z,12.67
2022-10-30T16:38:24.566Z,12.23
2022-10-30T16:40:52.019Z,12.20
2022-10-30T16:43:27.252Z,11.77
2022-10-30T16:45:54.594Z,11.73
2022-10-30T16:48:30.047Z,13.20
2022-10-30T16:51:01.483Z,12.70
2022-10-30T16:53:28.959Z,13.97
2022-10-30T16:55:57.101Z,11.90
2022-10-30T16:58:25.833Z,11.70
2022-10-30T17:00:57.532Z,11.33
2022-10-30T17:03:28.121Z,10.70
2022-10-30T17:06:05.552Z,12.30
2022-10-30T17:08:37.036Z,11.27
2022-10-30T17:11:05.926Z,11.60
2022-10-30T17:13:37.390Z,11.47
2022-10-30T17:16:21.701Z,12.10
2022-10-30T17:18:52.174Z,13.60
2022-10-30T17:21:22.203Z,14.93
2022-10-30T17:23:53.106Z,19.83
2022-10-30T17:26:20.166Z,19.97
2022-10-30T17:28:47.398Z,20.77
2022-10-30T17:31:29.653Z,22.80
2022-10-30T17:34:32.158Z,20.80
2022-10-30T17:36:59.778Z,17.53
2022-10-30T17:39:26.864Z,17.70
2022-10-30T17:41:56.723Z,16.57
2022-10-30T17:44:24.879Z,16.30
2022-10-30T17:46:52.660Z,15.53
2022-10-30T17:49:29.605Z,15.50
2022-10-30T17:51:57.209Z,15.03
2022-10-30T17:54:24.308Z,15.40
2022-10-30T17:56:52.611Z,16.47
2022-10-30T17:59:19.706Z,16.00
2022-10-30T18:01:48.869Z,15.30
2022-10-30T18:04:20.487Z,14.83
2022-10-30T18:06:48.628Z,14.67
2022-10-30T18:09:15.950Z,14.77
2022-10-30T18:11:43.040Z,14.27
2022-10-30T18:14:11.233Z,14.40
2022-10-30T18:16:38.327Z,15.20
2022-10-30T18:19:05.417Z,14.00
2022-10-30T18:21:32.450Z,13.40
2022-10-30T18:23:59.543Z,14.00
2022-10-30T18:26:27.328Z,16.27
2022-10-30T18:28:54.685Z,17.70
2022-10-30T18:31:23.775Z,18.13
2022-10-30T18:33:51.273Z,18.80
2022-10-30T18:36:22.774Z,21.07
2022-10-30T18:38:49.875Z,21.13
2022-10-30T18:41:21.133Z,19.83
2022-10-30T18:43:48.233Z,21.83
2022-10-30T18:46:16.499Z,21.97
2022-10-30T18:48:44.135Z,21.53
2022-10-30T18:51:15.458Z,22.47
2022-10-30T18:53:42.562Z,23.07
2022-10-30T18:56:10.699Z,26.63
2022-10-30T18:58:37.749Z,33.55
2022-10-30T19:01:12.913Z,27.97
2022-10-30T19:03:40.252Z,29.17
2022-10-30T19:06:10.449Z,42.30
2022-10-30T19:08:37.543Z,42.17
2022-10-30T19:11:04.783Z,38.37
2022-10-30T19:13:32.224Z,107.93
2022-10-30T19:16:02.687Z,57.97
2022-10-30T19:18:31.863Z,51.30
2022-10-30T19:21:04.312Z,54.30
2022-10-30T19:23:33.480Z,49.50
2022-10-30T19:26:00.650Z,42.73
2022-10-30T19:28:29.095Z,38.60
2022-10-30T19:30:56.157Z,32.30
2022-10-30T19:33:23.661Z,33.10
2022-10-30T19:35:57.916Z,29.47
2022-10-30T19:38:25.070Z,30.60
2022-10-30T19:40:52.395Z,26.33
2022-10-30T19:43:19.647Z,26.33
2022-10-30T19:45:49.077Z,26.83
2022-10-30T19:48:40.690Z,50.50
2022-10-30T19:51:09.275Z,29.33
2022-10-30T19:53:36.329Z,26.83
2022-10-30T19:56:03.870Z,47.00
2022-10-30T19:58:32.048Z,28.23
2022-10-30T20:00:59.135Z,28.27
2022-10-30T20:03:26.229Z,30.03
2022-10-30T20:05:54.184Z,29.97
2022-10-30T20:08:25.607Z,27.97
2022-10-30T20:10:53.697Z,29.67
2022-10-30T20:13:22.751Z,42.53
2022-10-30T20:15:50.175Z,38.60
2022-10-30T20:18:21.476Z,36.90
2022-10-30T20:20:50.193Z,35.87
2022-10-30T20:23:17.384Z,32.40
2022-10-30T20:25:44.923Z,31.63
2022-10-30T20:28:16.639Z,33.73
2022-10-30T20:30:43.739Z,30.00
2022-10-30T20:33:12.488Z,27.80
2022-10-30T20:35:39.669Z,30.13
2022-10-30T20:38:06.994Z,27.77
2022-10-30T20:40:34.194Z,26.57
2022-10-30T20:43:03.062Z,26.00
2022-10-30T20:45:30.529Z,28.17
2022-10-30T20:47:57.917Z,26.17
2022-10-30T20:50:25.228Z,25.83
2022-10-30T20:52:53.600Z,30.50
2022-10-30T20:55:20.900Z,26.30
2022-10-30T20:57:48.039Z,29.77
2022-10-30T21:00:15.334Z,29.37
2022-10-30T21:02:42.507Z,27.87
2022-10-30T21:05:12.041Z,26.53
2022-10-30T21:07:50.781Z,25.00
2022-10-30T21:10:17.995Z,23.57
2022-10-30T21:12:45.222Z,24.57
2022-10-30T21:15:12.329Z,22.63
2022-10-30T21:17:39.425Z,23.27
2022-10-30T21:20:06.774Z,22.53
2022-10-30T21:22:33.873Z,23.53
2022-10-30T21:25:01.016Z,33.33
2022-10-30T21:27:28.140Z,28.90
2022-10-30T21:29:55.218Z,30.70
2022-10-30T21:32:22.352Z,27.60
2022-10-30T21:34:49.432Z,28.00
2022-10-30T21:37:16.516Z,25.70
2022-10-30T21:39:43.596Z,31.80
2022-10-30T21:42:10.632Z,24.43
2022-10-30T21:44:37.720Z,26.77
2022-10-30T21:47:05.515Z,26.00
2022-10-30T21:49:32.583Z,29.67
2022-10-30T21:51:59.703Z,24.10
2022-10-30T21:54:26.799Z,23.07
2022-10-30T21:56:55.125Z,27.10
2022-10-30T21:59:22.178Z,32.90
2022-10-30T22:01:49.309Z,35.23
2022-10-30T22:04:16.550Z,27.27
2022-10-30T22:06:44.512Z,27.07
2022-10-30T22:09:14.546Z,28.10
2022-10-30T22:11:41.597Z,27.20
2022-10-30T22:14:08.706Z,28.20
2022-10-30T22:16:37.129Z,25.30
2022-10-30T22:19:05.632Z,27.30
2022-10-30T22:21:32.776Z,23.30
2022-10-30T22:24:03.587Z,22.60
2022-10-30T22:26:31.090Z,23.20
2022-10-30T22:28:58.959Z,21.00
2022-10-30T22:31:27.211Z,19.83
2022-10-30T22:33:54.319Z,17.50
2022-10-30T22:36:21.391Z,16.93
2022-10-30T22:38:49.451Z,18.87
2022-10-30T22:41:21.341Z,21.63
2022-10-30T22:43:49.134Z,21.93
2022-10-30T22:46:17.383Z,20.50
2022-10-30T22:48:45.104Z,26.27
2022-10-30T22:51:15.343Z,21.93
2022-10-30T22:53:44.083Z,21.47
2022-10-30T22:56:15.353Z,21.20
2022-10-30T22:58:42.491Z,22.43
2022-10-30T23:01:10.299Z,19.87
2022-10-30T23:03:37.414Z,19.90
2022-10-30T23:06:04.621Z,18.77
2022-10-30T23:08:31.792Z,18.27
2022-10-30T23:10:58.993Z,18.50
2022-10-30T23:13:26.185Z,16.57
2022-10-30T23:15:56.228Z,17.50
2022-10-30T23:18:26.085Z,15.90
2022-10-30T23:20:53.130Z,16.77
2022-10-30T23:23:20.209Z,16.00
2022-10-30T23:25:47.297Z,16.83
2022-10-30T23:28:14.368Z,16.17
2022-10-30T23:30:42.490Z,17.73
2022-10-30T23:33:10.139Z,16.00
2022-10-30T23:35:37.245Z,15.13
2022-10-30T23:38:04.766Z,16.97
2022-10-30T23:40:32.022Z,16.40
2022-10-30T23:42:59.399Z,18.47
2022-10-30T23:45:26.675Z,14.83
2022-10-30T23:47:53.758Z,14.73
2022-10-30T23:50:20.801Z,14.77
2022-10-30T23:52:47.873Z,15.13
2022-10-30T23:55:14.971Z,15.30
2022-10-30T23:57:42.050Z,14.00
